sensor_id;sensor_type;location;lat;lon;timestamp;temperature;humidity
13229;DHT22;6680;53.220;10.402;2024-02-21T00:00:52;8.40;99.90
13229;DHT22;6680;53.220;10.402;2024-02-21T00:03:19;8.50;99.90
13229;DHT22;6680;53.220;10.402;2024-02-21T00:05:46;8.80;99.90
13229;DHT22;6680;53.220;10.402;2024-02-21T00:08:12;8.50;99.90
13229;DHT22;6680;53.220;10.402;2024-02-21T00:10:41;8.70;99.90
13229;DHT22;6680;53.220;10.402;2024-02-21T00:13:07;8.40;99.90
13229;DHT22;6680;53.220;10.402;2024-02-21T00:15:34;8.40;99.90
13229;DHT22;6680;53.220;10.402;2024-02-21T00:18:01;8.40;99.90
13229;DHT22;6680;53.220;10.402;2024-02-21T00:20:28;8.50;99.90
13229;DHT22;6680;53.220;10.402;2024-02-21T00:22:56;8.50;99.90
13229;DHT22;6680;53.220;10.402;2024-02-21T00:25:23;8.50;99.90
13229;DHT22;6680;53.220;10.402;2024-02-21T00:27:51;8.50;99.90
13229;DHT22;6680;53.220;10.402;2024-02-21T00:30:20;8.50;99.90
13229;DHT22;6680;53.220;10.402;2024-02-21T00:32:47;8.60;99.90
13229;DHT22;6680;53.220;10.402;2024-02-21T00:35:14;8.60;99.90
13229;DHT22;6680;53.220;10.402;2024-02-21T00:37:41;8.70;99.90
13229;DHT22;6680;53.220;10.402;2024-02-21T00:40:09;8.60;99.90
13229;DHT22;6680;53.220;10.402;2024-02-21T00:42:36;8.60;99.90
13229;DHT22;6680;53.220;10.402;2024-02-21T00:45:05;8.60;99.90
13229;DHT22;6680;53.220;10.402;2024-02-21T00:47:32;8.70;99.90
13229;DHT22;6680;53.220;10.402;2024-02-21T00:49:59;8.60;99.90
13229;DHT22;6680;53.220;10.402;2024-02-21T00:52:26;8.60;99.90
13229;DHT22;6680;53.220;10.402;2024-02-21T00:54:52;8.60;99.90
13229;DHT22;6680;53.220;10.402;2024-02-21T00:57:19;8.60;99.90
13229;DHT22;6680;53.220;10.402;2024-02-21T00:59:46;8.50;99.90
13229;DHT22;6680;53.220;10.402;2024-02-21T01:02:15;8.50;99.90
13229;DHT22;6680;53.220;10.402;2024-02-21T01:04:41;8.50;99.90
13229;DHT22;6680;53.220;10.402;2024-02-21T01:07:08;8.50;99.90
13229;DHT22;6680;53.220;10.402;2024-02-21T01:09:35;8.60;99.90
13229;DHT22;6680;53.220;10.402;2024-02-21T01:12:02;8.60;99.90
13229;DHT22;6680;53.220;10.402;2024-02-21T01:14:29;8.50;99.90
13229;DHT22;6680;53.220;10.402;2024-02-21T01:16:55;8.50;99.90
13229;DHT22;6680;53.220;10.402;2024-02-21T01:19:24;8.60;99.90
13229;DHT22;6680;53.220;10.402;2024-02-21T01:21:50;8.60;99.90
13229;DHT22;6680;53.220;10.402;2024-02-21T01:24:17;8.60;99.90
13229;DHT22;6680;53.220;10.402;2024-02-21T01:26:44;8.50;99.90
13229;DHT22;6680;53.220;10.402;2024-02-21T01:29:11;8.60;99.90
13229;DHT22;6680;53.220;10.402;2024-02-21T01:31:38;8.50;99.90
13229;DHT22;6680;53.220;10.402;2024-02-21T01:34:05;8.60;99.90
13229;DHT22;6680;53.220;10.402;2024-02-21T01:36:33;8.50;99.90
13229;DHT22;6680;53.220;10.402;2024-02-21T01:39:00;8.50;99.90
13229;DHT22;6680;53.220;10.402;2024-02-21T01:41:29;8.60;99.90
13229;DHT22;6680;53.220;10.402;2024-02-21T01:43:56;8.60;99.90
13229;DHT22;6680;53.220;10.402;2024-02-21T01:46:23;8.60;99.90
13229;DHT22;6680;53.220;10.402;2024-02-21T01:48:53;8.70;99.90
13229;DHT22;6680;53.220;10.402;2024-02-21T01:51:20;8.70;99.90
13229;DHT22;6680;53.220;10.402;2024-02-21T01:53:50;8.60;99.90
13229;DHT22;6680;53.220;10.402;2024-02-21T01:56:17;8.60;99.90
13229;DHT22;6680;53.220;10.402;2024-02-21T01:58:45;8.60;99.90
13229;DHT22;6680;53.220;10.402;2024-02-21T02:01:12;8.60;99.90
13229;DHT22;6680;53.220;10.402;2024-02-21T02:03:39;8.60;99.90
13229;DHT22;6680;53.220;10.402;2024-02-21T02:06:07;8.60;99.90
13229;DHT22;6680;53.220;10.402;2024-02-21T02:08:33;8.60;99.90
13229;DHT22;6680;53.220;10.402;2024-02-21T02:11:02;8.60;99.90
13229;DHT22;6680;53.220;10.402;2024-02-21T02:13:29;8.60;99.90
13229;DHT22;6680;53.220;10.402;2024-02-21T02:15:56;8.60;99.90
13229;DHT22;6680;53.220;10.402;2024-02-21T02:18:23;8.60;99.90
13229;DHT22;6680;53.220;10.402;2024-02-21T02:20:49;8.60;99.90
13229;DHT22;6680;53.220;10.402;2024-02-21T02:23:22;8.70;99.90
13229;DHT22;6680;53.220;10.402;2024-02-21T02:25:50;8.60;99.90
13229;DHT22;6680;53.220;10.402;2024-02-21T02:28:18;8.70;99.90
13229;DHT22;6680;53.220;10.402;2024-02-21T02:30:45;8.70;99.90
13229;DHT22;6680;53.220;10.402;2024-02-21T02:33:12;8.70;99.90
13229;DHT22;6680;53.220;10.402;2024-02-21T02:35:39;8.70;99.90
13229;DHT22;6680;53.220;10.402;2024-02-21T02:38:06;8.70;99.90
13229;DHT22;6680;53.220;10.402;2024-02-21T02:40:35;8.60;99.90
13229;DHT22;6680;53.220;10.402;2024-02-21T02:43:02;8.60;99.90
13229;DHT22;6680;53.220;10.402;2024-02-21T02:45:29;8.60;99.90
13229;DHT22;6680;53.220;10.402;2024-02-21T02:47:56;8.60;99.90
13229;DHT22;6680;53.220;10.402;2024-02-21T02:50:23;8.60;99.90
13229;DHT22;6680;53.220;10.402;2024-02-21T02:52:50;8.60;99.90
13229;DHT22;6680;53.220;10.402;2024-02-21T02:55:17;8.60;99.90
13229;DHT22;6680;53.220;10.402;2024-02-21T02:57:45;8.50;99.90
13229;DHT22;6680;53.220;10.402;2024-02-21T03:00:13;8.60;99.90
13229;DHT22;6680;53.220;10.402;2024-02-21T03:02:43;8.60;99.90
13229;DHT22;6680;53.220;10.402;2024-02-21T03:05:14;8.70;99.90
13229;DHT22;6680;53.220;10.402;2024-02-21T03:07:41;8.80;99.90
13229;DHT22;6680;53.220;10.402;2024-02-21T03:10:08;8.80;99.90
13229;DHT22;6680;53.220;10.402;2024-02-21T03:12:35;8.80;99.90
13229;DHT22;6680;53.220;10.402;2024-02-21T03:15:04;8.70;99.90
13229;DHT22;6680;53.220;10.402;2024-02-21T03:17:32;8.80;99.90
13229;DHT22;6680;53.220;10.402;2024-02-21T03:19:59;8.70;99.90
13229;DHT22;6680;53.220;10.402;2024-02-21T03:22:26;8.80;99.90
13229;DHT22;6680;53.220;10.402;2024-02-21T03:24:53;8.80;99.90
13229;DHT22;6680;53.220;10.402;2024-02-21T03:27:20;8.80;99.90
13229;DHT22;6680;53.220;10.402;2024-02-21T03:29:47;8.70;99.90
13229;DHT22;6680;53.220;10.402;2024-02-21T03:32:15;8.80;99.90
13229;DHT22;6680;53.220;10.402;2024-02-21T03:34:42;8.80;99.90
13229;DHT22;6680;53.220;10.402;2024-02-21T03:37:09;8.80;99.90
13229;DHT22;6680;53.220;10.402;2024-02-21T03:39:36;8.70;99.90
13229;DHT22;6680;53.220;10.402;2024-02-21T03:42:03;8.80;99.90
13229;DHT22;6680;53.220;10.402;2024-02-21T03:44:31;8.80;99.90
13229;DHT22;6680;53.220;10.402;2024-02-21T03:46:58;8.80;99.90
13229;DHT22;6680;53.220;10.402;2024-02-21T03:49:26;8.80;99.90
13229;DHT22;6680;53.220;10.402;2024-02-21T03:51:54;8.90;99.90
13229;DHT22;6680;53.220;10.402;2024-02-21T03:54:21;8.90;99.90
13229;DHT22;6680;53.220;10.402;2024-02-21T03:56:48;8.80;99.90
13229;DHT22;6680;53.220;10.402;2024-02-21T03:59:15;8.80;99.90
13229;DHT22;6680;53.220;10.402;2024-02-21T04:01:41;8.80;99.90
13229;DHT22;6680;53.220;10.402;2024-02-21T04:04:09;8.80;99.90
13229;DHT22;6680;53.220;10.402;2024-02-21T04:06:45;8.80;99.90
13229;DHT22;6680;53.220;10.402;2024-02-21T04:09:12;8.50;99.90
13229;DHT22;6680;53.220;10.402;2024-02-21T04:11:39;8.90;99.90
13229;DHT22;6680;53.220;10.402;2024-02-21T04:14:05;8.90;99.90
13229;DHT22;6680;53.220;10.402;2024-02-21T04:16:32;8.90;99.90
13229;DHT22;6680;53.220;10.402;2024-02-21T04:18:59;8.90;99.90
13229;DHT22;6680;53.220;10.402;2024-02-21T04:21:27;8.90;99.90
13229;DHT22;6680;53.220;10.402;2024-02-21T04:23:55;8.90;99.90
13229;DHT22;6680;53.220;10.402;2024-02-21T04:26:22;8.90;99.90
13229;DHT22;6680;53.220;10.402;2024-02-21T04:28:49;9.00;99.90
13229;DHT22;6680;53.220;10.402;2024-02-21T04:31:16;8.90;99.90
13229;DHT22;6680;53.220;10.402;2024-02-21T04:33:42;9.00;99.90
13229;DHT22;6680;53.220;10.402;2024-02-21T04:36:09;9.00;99.90
13229;DHT22;6680;53.220;10.402;2024-02-21T04:38:36;9.00;99.90
13229;DHT22;6680;53.220;10.402;2024-02-21T04:41:06;9.00;99.90
13229;DHT22;6680;53.220;10.402;2024-02-21T04:43:33;9.00;99.90
13229;DHT22;6680;53.220;10.402;2024-02-21T04:46:00;9.00;99.90
13229;DHT22;6680;53.220;10.402;2024-02-21T04:48:27;8.90;99.90
13229;DHT22;6680;53.220;10.402;2024-02-21T04:50:54;8.90;99.90
13229;DHT22;6680;53.220;10.402;2024-02-21T04:53:21;8.90;99.90
13229;DHT22;6680;53.220;10.402;2024-02-21T04:55:47;8.80;99.90
13229;DHT22;6680;53.220;10.402;2024-02-21T04:58:15;8.80;99.90
13229;DHT22;6680;53.220;10.402;2024-02-21T05:00:42;8.80;99.90
13229;DHT22;6680;53.220;10.402;2024-02-21T05:03:09;8.80;99.90
13229;DHT22;6680;53.220;10.402;2024-02-21T05:05:36;8.80;99.90
13229;DHT22;6680;53.220;10.402;2024-02-21T05:08:04;8.80;99.90
13229;DHT22;6680;53.220;10.402;2024-02-21T05:10:30;8.80;99.90
13229;DHT22;6680;53.220;10.402;2024-02-21T05:12:57;8.70;99.90
13229;DHT22;6680;53.220;10.402;2024-02-21T05:15:25;8.70;99.90
13229;DHT22;6680;53.220;10.402;2024-02-21T05:17:52;8.70;99.90
13229;DHT22;6680;53.220;10.402;2024-02-21T05:20:19;8.70;99.90
13229;DHT22;6680;53.220;10.402;2024-02-21T05:22:46;8.70;99.90
13229;DHT22;6680;53.220;10.402;2024-02-21T05:25:13;8.70;99.90
13229;DHT22;6680;53.220;10.402;2024-02-21T05:27:40;8.70;99.90
13229;DHT22;6680;53.220;10.402;2024-02-21T05:30:07;8.70;99.90
13229;DHT22;6680;53.220;10.402;2024-02-21T05:32:36;8.70;99.90
13229;DHT22;6680;53.220;10.402;2024-02-21T05:35:04;8.70;99.90
13229;DHT22;6680;53.220;10.402;2024-02-21T05:37:30;8.70;99.90
13229;DHT22;6680;53.220;10.402;2024-02-21T05:39:57;8.60;99.90
13229;DHT22;6680;53.220;10.402;2024-02-21T05:42:24;8.60;99.90
13229;DHT22;6680;53.220;10.402;2024-02-21T05:44:51;8.60;99.90
13229;DHT22;6680;53.220;10.402;2024-02-21T05:47:17;8.70;99.90
13229;DHT22;6680;53.220;10.402;2024-02-21T05:49:47;8.60;99.90
13229;DHT22;6680;53.220;10.402;2024-02-21T05:52:14;8.60;99.90
13229;DHT22;6680;53.220;10.402;2024-02-21T05:54:41;8.70;99.90
13229;DHT22;6680;53.220;10.402;2024-02-21T05:57:08;8.60;99.90
13229;DHT22;6680;53.220;10.402;2024-02-21T05:59:37;8.60;99.90
13229;DHT22;6680;53.220;10.402;2024-02-21T06:02:05;8.60;99.90
13229;DHT22;6680;53.220;10.402;2024-02-21T06:04:32;8.60;99.90
13229;DHT22;6680;53.220;10.402;2024-02-21T06:07:00;8.60;99.90
13229;DHT22;6680;53.220;10.402;2024-02-21T06:09:27;8.60;99.90
13229;DHT22;6680;53.220;10.402;2024-02-21T06:11:54;8.50;99.90
13229;DHT22;6680;53.220;10.402;2024-02-21T06:14:21;8.60;99.90
13229;DHT22;6680;53.220;10.402;2024-02-21T06:16:47;8.60;99.90
13229;DHT22;6680;53.220;10.402;2024-02-21T06:19:14;8.60;99.90
13229;DHT22;6680;53.220;10.402;2024-02-21T06:21:41;8.60;99.90
13229;DHT22;6680;53.220;10.402;2024-02-21T06:24:09;8.60;99.90
13229;DHT22;6680;53.220;10.402;2024-02-21T06:26:37;8.60;99.90
13229;DHT22;6680;53.220;10.402;2024-02-21T06:29:05;8.60;99.90
13229;DHT22;6680;53.220;10.402;2024-02-21T06:31:32;8.60;99.90
13229;DHT22;6680;53.220;10.402;2024-02-21T06:33:59;8.60;99.90
13229;DHT22;6680;53.220;10.402;2024-02-21T06:36:26;8.60;99.90
13229;DHT22;6680;53.220;10.402;2024-02-21T06:38:52;8.70;99.90
13229;DHT22;6680;53.220;10.402;2024-02-21T06:41:20;8.70;99.90
13229;DHT22;6680;53.220;10.402;2024-02-21T06:43:47;8.60;99.90
13229;DHT22;6680;53.220;10.402;2024-02-21T06:46:23;8.60;99.90
13229;DHT22;6680;53.220;10.402;2024-02-21T06:48:50;8.60;99.90
13229;DHT22;6680;53.220;10.402;2024-02-21T06:51:17;8.60;99.90
13229;DHT22;6680;53.220;10.402;2024-02-21T06:53:44;8.70;99.90
13229;DHT22;6680;53.220;10.402;2024-02-21T06:56:11;8.60;99.90
13229;DHT22;6680;53.220;10.402;2024-02-21T06:58:39;8.60;99.90
13229;DHT22;6680;53.220;10.402;2024-02-21T07:01:06;8.60;99.90
13229;DHT22;6680;53.220;10.402;2024-02-21T07:03:33;8.50;99.90
13229;DHT22;6680;53.220;10.402;2024-02-21T07:06:00;8.50;99.90
13229;DHT22;6680;53.220;10.402;2024-02-21T07:08:26;8.50;99.90
13229;DHT22;6680;53.220;10.402;2024-02-21T07:10:53;8.50;99.90
13229;DHT22;6680;53.220;10.402;2024-02-21T07:13:20;8.50;99.90
13229;DHT22;6680;53.220;10.402;2024-02-21T07:15:49;8.50;99.90
13229;DHT22;6680;53.220;10.402;2024-02-21T07:18:16;8.60;99.90
13229;DHT22;6680;53.220;10.402;2024-02-21T07:20:43;8.60;99.90
13229;DHT22;6680;53.220;10.402;2024-02-21T07:23:10;8.60;99.90
13229;DHT22;6680;53.220;10.402;2024-02-21T07:25:36;8.60;99.90
13229;DHT22;6680;53.220;10.402;2024-02-21T07:28:04;8.70;99.90
13229;DHT22;6680;53.220;10.402;2024-02-21T07:30:31;8.60;99.90
13229;DHT22;6680;53.220;10.402;2024-02-21T07:32:59;8.60;99.90
13229;DHT22;6680;53.220;10.402;2024-02-21T07:35:25;8.60;99.90
13229;DHT22;6680;53.220;10.402;2024-02-21T07:37:52;8.60;99.90
13229;DHT22;6680;53.220;10.402;2024-02-21T07:40:19;8.70;99.90
13229;DHT22;6680;53.220;10.402;2024-02-21T07:42:46;8.70;99.90
13229;DHT22;6680;53.220;10.402;2024-02-21T07:45:13;8.70;99.90
13229;DHT22;6680;53.220;10.402;2024-02-21T07:47:39;8.70;99.90
13229;DHT22;6680;53.220;10.402;2024-02-21T07:50:08;8.80;99.90
13229;DHT22;6680;53.220;10.402;2024-02-21T07:52:35;8.80;99.90
13229;DHT22;6680;53.220;10.402;2024-02-21T07:55:02;8.90;99.90
13229;DHT22;6680;53.220;10.402;2024-02-21T07:57:29;8.80;99.90
13229;DHT22;6680;53.220;10.402;2024-02-21T07:59:56;8.90;99.90
13229;DHT22;6680;53.220;10.402;2024-02-21T08:02:23;8.90;99.90
13229;DHT22;6680;53.220;10.402;2024-02-21T08:04:50;8.90;99.90
13229;DHT22;6680;53.220;10.402;2024-02-21T08:07:18;8.90;99.90
13229;DHT22;6680;53.220;10.402;2024-02-21T08:09:45;9.00;99.90
13229;DHT22;6680;53.220;10.402;2024-02-21T08:12:12;9.10;99.90
13229;DHT22;6680;53.220;10.402;2024-02-21T08:14:38;9.20;99.90
13229;DHT22;6680;53.220;10.402;2024-02-21T08:17:05;9.30;99.90
13229;DHT22;6680;53.220;10.402;2024-02-21T08:19:32;9.40;99.90
13229;DHT22;6680;53.220;10.402;2024-02-21T08:21:59;9.40;99.90
13229;DHT22;6680;53.220;10.402;2024-02-21T08:24:27;9.30;99.90
13229;DHT22;6680;53.220;10.402;2024-02-21T08:26:54;9.40;99.90
13229;DHT22;6680;53.220;10.402;2024-02-21T08:29:21;9.50;99.90
13229;DHT22;6680;53.220;10.402;2024-02-21T08:31:48;9.40;99.90
13229;DHT22;6680;53.220;10.402;2024-02-21T08:34:15;9.40;99.90
13229;DHT22;6680;53.220;10.402;2024-02-21T08:36:43;9.40;99.90
13229;DHT22;6680;53.220;10.402;2024-02-21T08:39:10;9.50;99.90
13229;DHT22;6680;53.220;10.402;2024-02-21T08:41:38;9.50;99.90
13229;DHT22;6680;53.220;10.402;2024-02-21T08:44:05;9.50;99.90
13229;DHT22;6680;53.220;10.402;2024-02-21T08:46:33;9.50;99.90
13229;DHT22;6680;53.220;10.402;2024-02-21T08:48:59;9.60;99.90
13229;DHT22;6680;53.220;10.402;2024-02-21T08:51:26;9.60;99.90
13229;DHT22;6680;53.220;10.402;2024-02-21T08:53:53;9.60;99.90
13229;DHT22;6680;53.220;10.402;2024-02-21T08:56:20;9.60;99.90
13229;DHT22;6680;53.220;10.402;2024-02-21T08:58:48;9.70;99.90
13229;DHT22;6680;53.220;10.402;2024-02-21T09:01:15;9.80;99.90
13229;DHT22;6680;53.220;10.402;2024-02-21T09:03:42;9.80;99.90
13229;DHT22;6680;53.220;10.402;2024-02-21T09:06:10;9.80;99.90
13229;DHT22;6680;53.220;10.402;2024-02-21T09:08:38;9.80;99.90
13229;DHT22;6680;53.220;10.402;2024-02-21T09:11:06;9.80;99.90
13229;DHT22;6680;53.220;10.402;2024-02-21T09:13:33;9.80;99.90
13229;DHT22;6680;53.220;10.402;2024-02-21T09:16:01;9.80;99.90
13229;DHT22;6680;53.220;10.402;2024-02-21T09:18:28;9.90;99.90
13229;DHT22;6680;53.220;10.402;2024-02-21T09:20:55;10.00;99.90
13229;DHT22;6680;53.220;10.402;2024-02-21T09:23:24;9.90;99.90
13229;DHT22;6680;53.220;10.402;2024-02-21T09:25:50;9.90;99.90
13229;DHT22;6680;53.220;10.402;2024-02-21T09:28:17;10.00;99.90
13229;DHT22;6680;53.220;10.402;2024-02-21T09:30:44;10.00;99.90
13229;DHT22;6680;53.220;10.402;2024-02-21T09:33:13;10.10;99.90
13229;DHT22;6680;53.220;10.402;2024-02-21T09:35:40;10.10;99.90
13229;DHT22;6680;53.220;10.402;2024-02-21T09:38:07;10.10;99.90
13229;DHT22;6680;53.220;10.402;2024-02-21T09:40:34;10.00;99.90
13229;DHT22;6680;53.220;10.402;2024-02-21T09:43:05;10.00;99.90
13229;DHT22;6680;53.220;10.402;2024-02-21T09:45:33;9.90;99.90
13229;DHT22;6680;53.220;10.402;2024-02-21T09:48:26;9.80;99.90
13229;DHT22;6680;53.220;10.402;2024-02-21T09:50:57;9.70;99.90
13229;DHT22;6680;53.220;10.402;2024-02-21T09:53:26;9.60;99.90
13229;DHT22;6680;53.220;10.402;2024-02-21T09:55:55;9.60;99.90
13229;DHT22;6680;53.220;10.402;2024-02-21T09:58:22;9.60;99.90
13229;DHT22;6680;53.220;10.402;2024-02-21T10:00:51;9.60;99.90
13229;DHT22;6680;53.220;10.402;2024-02-21T10:03:19;9.70;99.90
13229;DHT22;6680;53.220;10.402;2024-02-21T10:05:48;9.70;99.90
13229;DHT22;6680;53.220;10.402;2024-02-21T10:08:15;9.70;99.90
13229;DHT22;6680;53.220;10.402;2024-02-21T10:10:43;9.50;99.90
13229;DHT22;6680;53.220;10.402;2024-02-21T10:13:10;9.50;99.90
13229;DHT22;6680;53.220;10.402;2024-02-21T10:15:37;9.40;99.90
13229;DHT22;6680;53.220;10.402;2024-02-21T10:18:04;9.50;99.90
13229;DHT22;6680;53.220;10.402;2024-02-21T10:20:33;9.60;99.90
13229;DHT22;6680;53.220;10.402;2024-02-21T10:23:01;9.70;99.90
13229;DHT22;6680;53.220;10.402;2024-02-21T10:25:29;9.60;99.90
13229;DHT22;6680;53.220;10.402;2024-02-21T10:27:56;9.70;99.90
13229;DHT22;6680;53.220;10.402;2024-02-21T10:30:23;9.80;99.90
13229;DHT22;6680;53.220;10.402;2024-02-21T10:32:50;9.90;99.90
13229;DHT22;6680;53.220;10.402;2024-02-21T10:35:26;10.00;99.90
13229;DHT22;6680;53.220;10.402;2024-02-21T10:37:55;10.10;99.90
13229;DHT22;6680;53.220;10.402;2024-02-21T10:40:24;10.10;99.90
13229;DHT22;6680;53.220;10.402;2024-02-21T10:42:56;10.10;99.90
13229;DHT22;6680;53.220;10.402;2024-02-21T10:45:29;10.30;99.90
13229;DHT22;6680;53.220;10.402;2024-02-21T10:48:08;10.40;99.90
13229;DHT22;6680;53.220;10.402;2024-02-21T10:50:45;10.40;99.90
13229;DHT22;6680;53.220;10.402;2024-02-21T10:53:23;10.20;99.90
13229;DHT22;6680;53.220;10.402;2024-02-21T10:55:56;10.30;99.90
13229;DHT22;6680;53.220;10.402;2024-02-21T10:58:25;10.20;99.90
13229;DHT22;6680;53.220;10.402;2024-02-21T11:00:54;10.20;99.90
13229;DHT22;6680;53.220;10.402;2024-02-21T11:03:21;10.10;99.90
13229;DHT22;6680;53.220;10.402;2024-02-21T11:05:49;10.10;99.90
13229;DHT22;6680;53.220;10.402;2024-02-21T11:08:18;10.20;99.90
13229;DHT22;6680;53.220;10.402;2024-02-21T11:10:46;10.20;99.90
13229;DHT22;6680;53.220;10.402;2024-02-21T11:13:13;10.10;99.90
13229;DHT22;6680;53.220;10.402;2024-02-21T11:15:40;10.20;99.90
13229;DHT22;6680;53.220;10.402;2024-02-21T11:18:06;10.10;99.90
13229;DHT22;6680;53.220;10.402;2024-02-21T11:20:34;10.10;99.90
13229;DHT22;6680;53.220;10.402;2024-02-21T11:23:01;10.10;99.90
13229;DHT22;6680;53.220;10.402;2024-02-21T11:25:29;10.20;99.90
13229;DHT22;6680;53.220;10.402;2024-02-21T11:28:02;10.10;99.90
13229;DHT22;6680;53.220;10.402;2024-02-21T11:30:30;10.10;99.90
13229;DHT22;6680;53.220;10.402;2024-02-21T11:33:01;10.10;99.90
13229;DHT22;6680;53.220;10.402;2024-02-21T11:35:31;10.00;99.90
13229;DHT22;6680;53.220;10.402;2024-02-21T11:38:08;10.10;99.90
13229;DHT22;6680;53.220;10.402;2024-02-21T11:40:40;10.00;99.90
13229;DHT22;6680;53.220;10.402;2024-02-21T11:43:07;10.00;99.90
13229;DHT22;6680;53.220;10.402;2024-02-21T11:45:33;9.90;99.90
13229;DHT22;6680;53.220;10.402;2024-02-21T11:48:00;9.80;99.90
13229;DHT22;6680;53.220;10.402;2024-02-21T11:50:29;9.90;99.90
13229;DHT22;6680;53.220;10.402;2024-02-21T11:52:55;9.90;99.90
13229;DHT22;6680;53.220;10.402;2024-02-21T11:55:22;9.90;99.90
13229;DHT22;6680;53.220;10.402;2024-02-21T11:57:51;9.90;99.90
13229;DHT22;6680;53.220;10.402;2024-02-21T12:00:19;9.90;99.90
13229;DHT22;6680;53.220;10.402;2024-02-21T12:02:46;9.90;99.90
13229;DHT22;6680;53.220;10.402;2024-02-21T12:05:14;9.80;99.90
13229;DHT22;6680;53.220;10.402;2024-02-21T12:07:41;10.00;99.90
13229;DHT22;6680;53.220;10.402;2024-02-21T12:10:09;10.00;99.90
13229;DHT22;6680;53.220;10.402;2024-02-21T12:12:36;9.80;99.90
13229;DHT22;6680;53.220;10.402;2024-02-21T12:15:06;9.90;99.90
13229;DHT22;6680;53.220;10.402;2024-02-21T12:17:34;10.00;99.90
13229;DHT22;6680;53.220;10.402;2024-02-21T12:20:01;10.00;99.90
13229;DHT22;6680;53.220;10.402;2024-02-21T12:22:30;10.00;99.90
13229;DHT22;6680;53.220;10.402;2024-02-21T12:24:57;10.10;99.90
13229;DHT22;6680;53.220;10.402;2024-02-21T12:27:24;10.10;99.90
13229;DHT22;6680;53.220;10.402;2024-02-21T12:29:52;10.20;99.90
13229;DHT22;6680;53.220;10.402;2024-02-21T12:32:20;10.20;99.90
13229;DHT22;6680;53.220;10.402;2024-02-21T12:34:47;10.30;99.90
13229;DHT22;6680;53.220;10.402;2024-02-21T12:37:14;10.30;99.90
13229;DHT22;6680;53.220;10.402;2024-02-21T12:39:41;10.40;99.90
13229;DHT22;6680;53.220;10.402;2024-02-21T12:42:08;10.30;99.90
13229;DHT22;6680;53.220;10.402;2024-02-21T12:44:37;10.30;99.90
13229;DHT22;6680;53.220;10.402;2024-02-21T12:47:04;10.30;99.90
13229;DHT22;6680;53.220;10.402;2024-02-21T12:49:32;10.40;99.90
13229;DHT22;6680;53.220;10.402;2024-02-21T12:51:59;10.40;99.90
13229;DHT22;6680;53.220;10.402;2024-02-21T12:54:25;10.50;99.90
13229;DHT22;6680;53.220;10.402;2024-02-21T12:56:52;10.60;99.90
13229;DHT22;6680;53.220;10.402;2024-02-21T12:59:19;10.60;99.90
13229;DHT22;6680;53.220;10.402;2024-02-21T13:01:46;10.60;99.90
13229;DHT22;6680;53.220;10.402;2024-02-21T13:04:13;10.50;99.90
13229;DHT22;6680;53.220;10.402;2024-02-21T13:06:41;10.70;99.90
13229;DHT22;6680;53.220;10.402;2024-02-21T13:09:08;10.50;99.90
13229;DHT22;6680;53.220;10.402;2024-02-21T13:11:36;10.60;99.90
13229;DHT22;6680;53.220;10.402;2024-02-21T13:14:03;10.70;99.90
13229;DHT22;6680;53.220;10.402;2024-02-21T13:16:30;10.80;99.90
13229;DHT22;6680;53.220;10.402;2024-02-21T13:18:57;10.70;99.90
13229;DHT22;6680;53.220;10.402;2024-02-21T13:21:23;10.70;99.90
13229;DHT22;6680;53.220;10.402;2024-02-21T13:23:52;10.50;99.90
13229;DHT22;6680;53.220;10.402;2024-02-21T13:26:19;10.60;99.90
13229;DHT22;6680;53.220;10.402;2024-02-21T13:28:46;10.60;99.90
13229;DHT22;6680;53.220;10.402;2024-02-21T13:31:13;10.70;99.90
13229;DHT22;6680;53.220;10.402;2024-02-21T13:33:42;10.80;99.90
13229;DHT22;6680;53.220;10.402;2024-02-21T13:36:09;10.80;99.90
13229;DHT22;6680;53.220;10.402;2024-02-21T13:38:37;10.80;99.90
13229;DHT22;6680;53.220;10.402;2024-02-21T13:41:06;10.80;99.90
13229;DHT22;6680;53.220;10.402;2024-02-21T13:43:33;10.70;99.90
13229;DHT22;6680;53.220;10.402;2024-02-21T13:46:01;10.80;99.90
13229;DHT22;6680;53.220;10.402;2024-02-21T13:48:30;10.80;99.90
13229;DHT22;6680;53.220;10.402;2024-02-21T13:50:58;10.90;99.90
13229;DHT22;6680;53.220;10.402;2024-02-21T13:53:27;10.90;99.90
13229;DHT22;6680;53.220;10.402;2024-02-21T13:55:54;10.90;99.90
13229;DHT22;6680;53.220;10.402;2024-02-21T13:58:22;10.90;99.90
13229;DHT22;6680;53.220;10.402;2024-02-21T14:00:51;11.00;99.90
13229;DHT22;6680;53.220;10.402;2024-02-21T14:03:18;11.00;99.90
13229;DHT22;6680;53.220;10.402;2024-02-21T14:05:45;11.00;99.90
13229;DHT22;6680;53.220;10.402;2024-02-21T14:08:13;11.00;99.90
13229;DHT22;6680;53.220;10.402;2024-02-21T14:10:40;11.00;99.90
13229;DHT22;6680;53.220;10.402;2024-02-21T14:13:07;11.10;99.90
13229;DHT22;6680;53.220;10.402;2024-02-21T14:15:35;11.00;99.90
13229;DHT22;6680;53.220;10.402;2024-02-21T14:18:06;11.00;99.90
13229;DHT22;6680;53.220;10.402;2024-02-21T14:20:35;11.00;99.90
13229;DHT22;6680;53.220;10.402;2024-02-21T14:23:01;11.00;99.90
13229;DHT22;6680;53.220;10.402;2024-02-21T14:25:30;11.10;99.90
13229;DHT22;6680;53.220;10.402;2024-02-21T14:27:56;11.00;99.90
13229;DHT22;6680;53.220;10.402;2024-02-21T14:30:23;11.10;99.90
13229;DHT22;6680;53.220;10.402;2024-02-21T14:32:52;11.00;99.90
13229;DHT22;6680;53.220;10.402;2024-02-21T14:35:19;11.00;99.90
13229;DHT22;6680;53.220;10.402;2024-02-21T14:37:46;10.90;99.90
13229;DHT22;6680;53.220;10.402;2024-02-21T14:40:14;10.90;99.90
13229;DHT22;6680;53.220;10.402;2024-02-21T14:42:41;10.90;99.90
13229;DHT22;6680;53.220;10.402;2024-02-21T14:45:09;10.90;99.90
13229;DHT22;6680;53.220;10.402;2024-02-21T14:47:35;11.00;99.90
13229;DHT22;6680;53.220;10.402;2024-02-21T14:50:05;10.90;99.90
13229;DHT22;6680;53.220;10.402;2024-02-21T14:52:33;10.90;99.90
13229;DHT22;6680;53.220;10.402;2024-02-21T14:55:01;10.90;99.90
13229;DHT22;6680;53.220;10.402;2024-02-21T14:57:29;10.90;99.90
13229;DHT22;6680;53.220;10.402;2024-02-21T14:59:55;10.90;99.90
13229;DHT22;6680;53.220;10.402;2024-02-21T15:02:24;10.90;99.90
13229;DHT22;6680;53.220;10.402;2024-02-21T15:04:52;10.80;99.90
13229;DHT22;6680;53.220;10.402;2024-02-21T15:07:20;10.80;99.90
13229;DHT22;6680;53.220;10.402;2024-02-21T15:09:49;10.70;99.90
13229;DHT22;6680;53.220;10.402;2024-02-21T15:12:17;10.70;99.90
13229;DHT22;6680;53.220;10.402;2024-02-21T15:14:44;10.70;99.90
13229;DHT22;6680;53.220;10.402;2024-02-21T15:17:11;10.60;99.90
13229;DHT22;6680;53.220;10.402;2024-02-21T15:19:38;10.60;99.90
13229;DHT22;6680;53.220;10.402;2024-02-21T15:22:09;10.50;99.90
13229;DHT22;6680;53.220;10.402;2024-02-21T15:24:38;10.50;99.90
13229;DHT22;6680;53.220;10.402;2024-02-21T15:27:05;10.30;99.90
13229;DHT22;6680;53.220;10.402;2024-02-21T15:29:32;10.40;99.90
13229;DHT22;6680;53.220;10.402;2024-02-21T15:31:59;10.30;99.90
13229;DHT22;6680;53.220;10.402;2024-02-21T15:34:26;10.30;99.90
13229;DHT22;6680;53.220;10.402;2024-02-21T15:36:53;10.10;99.90
13229;DHT22;6680;53.220;10.402;2024-02-21T15:39:19;10.10;99.90
13229;DHT22;6680;53.220;10.402;2024-02-21T15:41:48;10.10;99.90